Morozovsk, Russia
Current Conditions -  °F | °C
As of 4:30 PM on Friday 19 Dec 2014 (Local Time) from URWW Reporting Station
Moderate Fog Moderate Fog  
Wind Chill: 29°   Ceiling: 200
Heat Index: 36°   Visibility: 0.25mi
Dew Point: 36°   Wind: 9mph
Humidity: 100%   Direction: 310°NW
Pressure: 30"   Gusts: NA
Location:  48.35°N, 41.83°E
Report Text: URWW 191330Z 31004MPS 0400 R29/0700N FG VV002 02/02 Q1016 NOSIGRMK QBB070 OBST OBSC 29290253
Loading
Personal Weather Stations






























Interactive Weather Map New forecast layout! Learn more

10-Day Weather Forecast

Advertisements
Track Severe Weather on mobile